Terminal Aerodrome Forecast
Issued by NWS Twin Cities, MN

Home | Current Version | Previous Version | Text Only | Print | Product List | Glossary On
Versions: 1 2 3 4 5 6 7 8 9 10 11 12 13 14 15 16 17 18 19 20 21 22 23 24 25
000
FTUS43 KMPX 231140
TAFSTC
TAF
KSTC 231140Z 2312/2412 17012G18KT P6SM BKN060 OVC100
     FM231900 19014G20KT P6SM VCSH OVC050
      TEMPO 2320/2323 4SM -TSRA OVC040CB
     FM240000 21011KT P6SM BKN060
     FM240900 26003KT 4SM BR SCT100=

USA.gov is the U.S. government's official web portal to all federal, state and local government web resources and services.